Terminal Aerodrome Forecast
Issued by NWS

Home | Current Version | Previous Version | Text Only | Print | Product List | Glossary On
Versions: 1 2 3 4 5 6 7 8 9 10 11 12 13 14 15 16 17 18 19 20 21 22
000
FTUS44 KSJT 242300
TAFBBD
TAF
KBBD 242326Z 2500/2524 VRB05KT P6SM SKC
     FM250800 17006KT P6SM OVC015
     FM251000 16007G14KT P6SM OVC015 PROB30 2513/2519 6SM -TSRA
      BKN015CB
     FM251900 20012KT P6SM SCT050
      TEMPO 2519/2523 P6SM -TSRA BKN050CB=

USA.gov is the U.S. government's official web portal to all federal, state and local government web resources and services.